createdAt,value
2023-04-29T00:00:40.569Z,12.78
2023-04-29T00:01:39.870Z,12.78
2023-04-29T00:02:40.002Z,12.78
2023-04-29T00:03:40.017Z,12.77
2023-04-29T00:04:40.141Z,12.79
2023-04-29T00:05:39.950Z,12.77
2023-04-29T00:06:39.805Z,12.77
2023-04-29T00:07:39.813Z,12.78
2023-04-29T00:08:39.784Z,12.79
2023-04-29T00:09:39.796Z,12.78
2023-04-29T00:10:39.765Z,12.79
2023-04-29T00:11:39.813Z,12.82
2023-04-29T00:12:39.818Z,12.78
2023-04-29T00:13:39.777Z,12.79
2023-04-29T00:14:39.768Z,12.82
2023-04-29T00:15:39.752Z,12.78
2023-04-29T00:16:39.757Z,12.82
2023-04-29T00:17:39.745Z,12.82
2023-04-29T00:18:39.701Z,12.83
2023-04-29T00:19:39.676Z,12.82
2023-04-29T00:20:39.666Z,12.82
2023-04-29T00:21:39.652Z,12.83
2023-04-29T00:22:39.630Z,12.79
2023-04-29T00:23:39.626Z,12.82
2023-04-29T00:24:39.611Z,12.78
2023-04-29T00:25:39.604Z,12.78
2023-04-29T00:26:39.593Z,12.78
2023-04-29T00:27:39.587Z,12.79
2023-04-29T00:28:39.561Z,12.78
2023-04-29T00:29:39.564Z,12.77
2023-04-29T00:30:39.603Z,12.77
2023-04-29T00:31:39.606Z,12.77
2023-04-29T00:32:39.560Z,12.75
2023-04-29T00:33:39.562Z,12.75
2023-04-29T00:34:39.513Z,12.72
2023-04-29T00:35:39.493Z,12.74
2023-04-29T00:36:39.468Z,12.71
2023-04-29T00:37:39.470Z,12.74
2023-04-29T00:38:39.447Z,12.74
2023-04-29T00:39:39.455Z,12.75
2023-04-29T00:40:39.448Z,12.74
2023-04-29T00:41:39.431Z,12.77
2023-04-29T00:42:39.415Z,12.74
2023-04-29T00:43:39.414Z,12.77
2023-04-29T00:44:39.398Z,12.78
2023-04-29T00:45:39.392Z,12.78
2023-04-29T00:46:39.418Z,12.75
2023-04-29T00:47:39.382Z,12.74
2023-04-29T00:48:39.365Z,12.75
2023-04-29T00:49:39.343Z,12.71
2023-04-29T00:50:39.328Z,12.72
2023-04-29T00:51:39.313Z,12.74
2023-04-29T00:52:39.303Z,12.72
2023-04-29T00:53:39.292Z,12.72
2023-04-29T00:54:39.295Z,12.72
2023-04-29T00:55:39.275Z,12.71
2023-04-29T00:56:39.257Z,12.72
2023-04-29T00:57:39.269Z,12.72
2023-04-29T00:58:39.241Z,12.75
2023-04-29T00:59:39.235Z,12.75
2023-04-29T01:00:39.223Z,12.74
2023-04-29T01:01:39.262Z,12.77
2023-04-29T01:02:39.237Z,12.75
2023-04-29T01:03:39.379Z,12.74
2023-04-29T01:04:39.197Z,12.74
2023-04-29T01:05:39.172Z,12.74
2023-04-29T01:06:39.138Z,12.75
2023-04-29T01:07:39.139Z,12.78
2023-04-29T01:08:39.119Z,12.78
2023-04-29T01:09:39.118Z,12.78
2023-04-29T01:10:39.112Z,12.82
2023-04-29T01:11:39.332Z,12.78
2023-04-29T01:12:39.082Z,12.78
2023-04-29T01:13:39.082Z,12.78
2023-04-29T01:14:39.056Z,12.77
2023-04-29T01:15:39.089Z,12.78
2023-04-29T01:16:39.163Z,12.77
2023-04-29T01:17:39.074Z,12.75
2023-04-29T01:18:39.020Z,12.74
2023-04-29T01:19:39.008Z,12.72
2023-04-29T01:20:38.994Z,12.72
2023-04-29T01:21:38.983Z,12.71
2023-04-29T01:22:38.982Z,12.70
2023-04-29T01:23:38.970Z,12.70
2023-04-29T01:24:38.952Z,12.70
2023-04-29T01:25:38.950Z,12.65
2023-04-29T01:26:38.924Z,12.65
2023-04-29T01:27:38.929Z,12.67
2023-04-29T01:28:38.904Z,12.68
2023-04-29T01:29:38.907Z,12.65
2023-04-29T01:30:38.907Z,12.60
2023-04-29T01:31:38.953Z,12.59
2023-04-29T01:32:38.887Z,12.60
2023-04-29T01:33:38.857Z,12.57
2023-04-29T01:34:38.858Z,12.54
2023-04-29T01:35:38.838Z,12.56
2023-04-29T01:36:38.820Z,12.56
2023-04-29T01:37:38.833Z,12.59
2023-04-29T01:38:38.794Z,12.59
2023-04-29T01:39:38.801Z,12.59
2023-04-29T01:40:38.776Z,12.57
2023-04-29T01:41:38.763Z,12.56
2023-04-29T01:42:38.745Z,12.56
2023-04-29T01:43:38.747Z,12.53
2023-04-29T01:44:38.740Z,12.54
2023-04-29T01:45:38.727Z,12.53
2023-04-29T01:46:38.749Z,12.52
2023-04-29T01:47:38.738Z,12.54
2023-04-29T01:48:38.686Z,12.54
2023-04-29T01:49:38.691Z,12.52
2023-04-29T01:50:38.675Z,12.54
2023-04-29T01:51:38.664Z,12.56
2023-04-29T01:52:38.642Z,12.56
2023-04-29T01:53:38.918Z,12.56
2023-04-29T01:54:38.612Z,12.56
2023-04-29T01:55:38.636Z,12.54
2023-04-29T01:56:38.601Z,12.56
2023-04-29T01:57:38.600Z,12.56
2023-04-29T01:58:38.589Z,12.53
2023-04-29T01:59:38.576Z,12.56
2023-04-29T02:00:38.590Z,12.54
2023-04-29T02:01:38.553Z,12.52
2023-04-29T02:02:38.687Z,12.53
2023-04-29T02:03:38.665Z,12.53
2023-04-29T02:04:38.572Z,12.52
2023-04-29T02:05:38.527Z,12.52
2023-04-29T02:06:38.590Z,12.49
2023-04-29T02:07:38.489Z,12.49
2023-04-29T02:08:38.506Z,12.47
2023-04-29T02:09:38.467Z,12.49
2023-04-29T02:10:38.447Z,12.47
2023-04-29T02:11:38.445Z,12.45
2023-04-29T02:12:38.432Z,12.42
2023-04-29T02:13:38.437Z,12.45
2023-04-29T02:14:38.414Z,12.45
2023-04-29T02:15:38.412Z,12.42
2023-04-29T02:16:38.423Z,12.39
2023-04-29T02:17:38.412Z,12.41
2023-04-29T02:18:38.365Z,12.38
2023-04-29T02:19:38.370Z,12.38
2023-04-29T02:20:38.346Z,12.35
2023-04-29T02:21:38.346Z,12.35
2023-04-29T02:22:38.319Z,12.34
2023-04-29T02:23:38.314Z,12.32
2023-04-29T02:24:38.297Z,12.35
2023-04-29T02:25:38.300Z,12.34
2023-04-29T02:26:38.304Z,12.34
2023-04-29T02:27:38.284Z,12.31
2023-04-29T02:28:38.253Z,12.31
2023-04-29T02:29:38.250Z,12.31
2023-04-29T02:30:38.243Z,12.32
2023-04-29T02:31:38.277Z,12.28
2023-04-29T02:32:38.240Z,12.31
2023-04-29T02:33:38.205Z,12.28
2023-04-29T02:34:38.196Z,12.29
2023-04-29T02:35:38.177Z,12.28
2023-04-29T02:36:38.178Z,12.24
2023-04-29T02:37:38.155Z,12.28
2023-04-29T02:38:38.160Z,12.28
2023-04-29T02:39:38.132Z,12.31
2023-04-29T02:40:38.135Z,12.31
2023-04-29T02:41:38.110Z,12.35
2023-04-29T02:42:38.107Z,12.35
2023-04-29T02:43:38.110Z,12.34
2023-04-29T02:44:38.092Z,12.37
2023-04-29T02:45:38.089Z,12.38
2023-04-29T02:46:38.066Z,12.37
2023-04-29T02:47:38.110Z,12.34
2023-04-29T02:48:38.038Z,12.37
2023-04-29T02:49:38.038Z,12.37
2023-04-29T02:50:38.022Z,12.35
2023-04-29T02:51:38.042Z,12.34
2023-04-29T02:52:38.006Z,12.35
2023-04-29T02:53:37.984Z,12.32
2023-04-29T02:54:37.986Z,12.34
2023-04-29T02:55:37.960Z,12.31
2023-04-29T02:56:37.959Z,12.31
2023-04-29T02:57:37.950Z,12.32
2023-04-29T02:58:37.944Z,12.32
2023-04-29T02:59:37.928Z,12.31
2023-04-29T03:00:37.942Z,12.32
2023-04-29T03:01:37.948Z,12.29
2023-04-29T03:02:38.059Z,12.32
2023-04-29T03:03:38.057Z,12.32
2023-04-29T03:04:37.879Z,12.34
2023-04-29T03:05:37.863Z,12.32
2023-04-29T03:06:37.857Z,12.34
2023-04-29T03:07:37.833Z,12.34
2023-04-29T03:08:37.832Z,12.29
2023-04-29T03:09:37.809Z,12.32
2023-04-29T03:10:39.256Z,12.31
2023-04-29T03:11:37.885Z,12.34
2023-04-29T03:12:37.785Z,12.32
2023-04-29T03:13:38.045Z,12.31
2023-04-29T03:14:37.764Z,12.29
2023-04-29T03:15:37.743Z,12.32
2023-04-29T03:16:37.779Z,12.31
2023-04-29T03:17:37.747Z,12.31
2023-04-29T03:18:38.540Z,12.29
2023-04-29T03:19:37.696Z,12.29
2023-04-29T03:20:37.700Z,12.29
2023-04-29T03:21:37.680Z,12.31
2023-04-29T03:22:37.702Z,12.27
2023-04-29T03:23:37.650Z,12.28
2023-04-29T03:24:37.654Z,12.28
2023-04-29T03:25:37.673Z,12.29
2023-04-29T03:26:37.642Z,12.29
2023-04-29T03:27:37.609Z,12.27
2023-04-29T03:28:37.613Z,12.28
2023-04-29T03:29:37.595Z,12.24
2023-04-29T03:30:37.607Z,12.27
2023-04-29T03:31:37.618Z,12.24
2023-04-29T03:32:37.604Z,12.24
2023-04-29T03:33:37.537Z,12.23
2023-04-29T03:34:37.544Z,12.24
2023-04-29T03:35:37.526Z,12.23
2023-04-29T03:36:37.518Z,12.21
2023-04-29T03:37:37.495Z,12.23
2023-04-29T03:38:37.493Z,12.27
2023-04-29T03:39:37.484Z,12.24
2023-04-29T03:40:37.482Z,12.27
2023-04-29T03:41:37.457Z,12.24
2023-04-29T03:42:37.458Z,12.27
2023-04-29T03:43:37.436Z,12.27
2023-04-29T03:44:37.438Z,12.27
2023-04-29T03:45:37.415Z,12.23
2023-04-29T03:46:37.561Z,12.27
2023-04-29T03:47:37.426Z,12.27
2023-04-29T03:48:37.381Z,12.28
2023-04-29T03:49:37.379Z,12.29
2023-04-29T03:50:37.363Z,12.29
2023-04-29T03:51:37.336Z,12.31
2023-04-29T03:52:37.339Z,12.29
2023-04-29T03:53:37.318Z,12.27
2023-04-29T03:54:37.318Z,12.28
2023-04-29T03:55:37.303Z,12.27
2023-04-29T03:56:37.307Z,12.24
2023-04-29T03:57:37.280Z,12.23
2023-04-29T03:58:37.277Z,12.23
2023-04-29T03:59:37.263Z,12.20
2023-04-29T04:00:37.256Z,12.21
2023-04-29T04:01:37.261Z,12.19
2023-04-29T04:02:37.366Z,12.19
2023-04-29T04:03:37.403Z,12.17
2023-04-29T04:04:37.353Z,12.19
2023-04-29T04:05:37.190Z,12.20
2023-04-29T04:06:37.186Z,12.21
2023-04-29T04:07:37.165Z,12.20
2023-04-29T04:08:37.162Z,12.23
2023-04-29T04:09:37.144Z,12.20
2023-04-29T04:10:37.138Z,12.21
2023-04-29T04:11:37.126Z,12.21
2023-04-29T04:12:37.113Z,12.23
2023-04-29T04:13:37.092Z,12.21
2023-04-29T04:14:37.097Z,12.23
2023-04-29T04:15:37.073Z,12.24
2023-04-29T04:16:37.166Z,12.23
2023-04-29T04:17:37.065Z,12.24
2023-04-29T04:18:37.049Z,12.24
2023-04-29T04:19:37.028Z,12.23
2023-04-29T04:20:37.133Z,12.23
2023-04-29T04:21:37.017Z,12.24
2023-04-29T04:22:37.013Z,12.24
2023-04-29T04:23:36.983Z,12.23
2023-04-29T04:24:36.983Z,12.24
2023-04-29T04:25:36.976Z,12.24
2023-04-29T04:26:36.963Z,12.24
2023-04-29T04:27:36.947Z,12.27
2023-04-29T04:28:36.943Z,12.23
2023-04-29T04:29:36.954Z,12.24
2023-04-29T04:30:37.319Z,12.24
2023-04-29T04:31:36.970Z,12.28
2023-04-29T04:32:36.902Z,12.29
2023-04-29T04:33:36.882Z,12.31
2023-04-29T04:34:36.878Z,12.32
2023-04-29T04:35:36.866Z,12.31
2023-04-29T04:36:36.854Z,12.32
2023-04-29T04:37:36.834Z,12.32
2023-04-29T04:38:36.841Z,12.32
2023-04-29T04:39:36.816Z,12.34
2023-04-29T04:40:36.814Z,12.31
2023-04-29T04:41:36.799Z,12.31
2023-04-29T04:42:37.167Z,12.31
2023-04-29T04:43:36.782Z,12.31
2023-04-29T04:44:36.765Z,12.32
2023-04-29T04:45:36.776Z,12.31
2023-04-29T04:46:36.749Z,12.29
2023-04-29T04:47:36.776Z,12.31
2023-04-29T04:48:36.727Z,12.29
2023-04-29T04:49:36.699Z,12.24
2023-04-29T04:50:36.734Z,12.28
2023-04-29T04:51:36.683Z,12.31
2023-04-29T04:52:36.680Z,12.29
2023-04-29T04:53:36.665Z,12.32
2023-04-29T04:54:36.656Z,12.34
2023-04-29T04:55:36.647Z,12.37
2023-04-29T04:56:36.653Z,12.38
2023-04-29T04:57:36.749Z,12.38
2023-04-29T04:58:36.613Z,12.41
2023-04-29T04:59:36.614Z,12.45
2023-04-29T05:00:36.592Z,12.45
2023-04-29T05:01:36.658Z,12.45
2023-04-29T05:02:37.139Z,12.46
2023-04-29T05:03:36.838Z,12.47
2023-04-29T05:04:36.550Z,12.47
2023-04-29T05:05:36.522Z,12.49
2023-04-29T05:06:36.531Z,12.53
2023-04-29T05:07:36.509Z,12.53
2023-04-29T05:08:36.511Z,12.56
2023-04-29T05:09:36.489Z,12.59
2023-04-29T05:10:36.484Z,12.60
2023-04-29T05:11:36.477Z,12.64
2023-04-29T05:12:36.470Z,12.65
2023-04-29T05:13:36.447Z,12.65
2023-04-29T05:14:36.459Z,12.67
2023-04-29T05:15:36.423Z,12.71
2023-04-29T05:16:36.485Z,12.70
2023-04-29T05:17:36.644Z,12.72
2023-04-29T05:18:36.391Z,12.78
2023-04-29T05:19:36.379Z,12.79
2023-04-29T05:20:36.381Z,12.85
2023-04-29T05:21:36.355Z,12.85
2023-04-29T05:22:36.359Z,12.85
2023-04-29T05:23:36.656Z,12.86
2023-04-29T05:24:36.334Z,12.87
2023-04-29T05:25:36.322Z,12.87
2023-04-29T05:26:36.327Z,12.87
2023-04-29T05:27:36.301Z,12.90
2023-04-29T05:28:36.302Z,12.87
2023-04-29T05:29:36.275Z,12.90
2023-04-29T05:30:36.320Z,12.93
2023-04-29T05:31:36.267Z,12.96
2023-04-29T05:32:36.271Z,13.00
2023-04-29T05:33:36.230Z,13.01
2023-04-29T05:34:36.229Z,13.03
2023-04-29T05:35:36.212Z,13.05
2023-04-29T05:36:36.225Z,13.05
2023-04-29T05:37:36.186Z,13.07
2023-04-29T05:38:36.187Z,13.11
2023-04-29T05:39:36.168Z,13.14
2023-04-29T05:40:36.164Z,13.14
2023-04-29T05:41:36.147Z,13.14
2023-04-29T05:42:36.140Z,13.22
2023-04-29T05:43:36.985Z,13.30
2023-04-29T05:44:36.121Z,13.36
2023-04-29T05:45:36.096Z,13.44
2023-04-29T05:46:36.260Z,13.48
2023-04-29T05:47:36.137Z,13.51
2023-04-29T05:48:36.075Z,13.49
2023-04-29T05:49:36.056Z,13.44
2023-04-29T05:50:36.058Z,13.41
2023-04-29T05:51:36.038Z,13.44
2023-04-29T05:52:36.036Z,13.48
2023-04-29T05:53:36.017Z,13.46
2023-04-29T05:54:36.020Z,13.36
2023-04-29T05:55:35.997Z,13.33
2023-04-29T05:56:36.019Z,13.36
2023-04-29T05:57:35.972Z,13.33
2023-04-29T05:58:36.013Z,13.38
2023-04-29T05:59:35.955Z,13.42
2023-04-29T06:00:35.948Z,13.42
2023-04-29T06:01:35.934Z,13.48
2023-04-29T06:02:41.585Z,13.52
2023-04-29T06:03:37.077Z,13.59
2023-04-29T06:04:36.071Z,13.66
2023-04-29T06:05:36.268Z,13.67
2023-04-29T06:06:35.984Z,13.66
2023-04-29T06:07:35.886Z,13.57
2023-04-29T06:08:35.865Z,13.59
2023-04-29T06:09:35.845Z,13.63
2023-04-29T06:10:35.842Z,13.69
2023-04-29T06:11:35.823Z,13.75
2023-04-29T06:12:35.819Z,13.81
2023-04-29T06:13:35.810Z,13.85
2023-04-29T06:14:35.820Z,13.95
2023-04-29T06:15:35.786Z,14.10
2023-04-29T06:16:35.801Z,14.17
2023-04-29T06:17:35.777Z,14.35
2023-04-29T06:18:35.787Z,14.51
2023-04-29T06:19:35.754Z,14.54
2023-04-29T06:20:37.461Z,14.52
2023-04-29T06:21:35.726Z,14.46
2023-04-29T06:22:35.714Z,14.60
2023-04-29T06:23:35.714Z,14.75
2023-04-29T06:24:35.694Z,14.64
2023-04-29T06:25:35.689Z,14.64
2023-04-29T06:26:35.673Z,14.68
2023-04-29T06:27:35.663Z,14.68
2023-04-29T06:28:35.650Z,14.75
2023-04-29T06:29:35.627Z,14.78
2023-04-29T06:30:35.622Z,14.68
2023-04-29T06:31:35.625Z,14.68
2023-04-29T06:32:35.740Z,14.80
2023-04-29T06:33:35.591Z,14.81
2023-04-29T06:34:35.606Z,14.89
2023-04-29T06:35:35.569Z,14.83
2023-04-29T06:36:35.559Z,14.70
2023-04-29T06:37:37.573Z,14.64
2023-04-29T06:38:35.542Z,14.65
2023-04-29T06:39:35.722Z,14.69
2023-04-29T06:40:35.521Z,14.65
2023-04-29T06:41:35.502Z,14.68
2023-04-29T06:42:35.506Z,14.72
2023-04-29T06:43:35.479Z,14.84
2023-04-29T06:44:35.474Z,14.91
2023-04-29T06:45:35.463Z,14.86
2023-04-29T06:46:36.296Z,14.89
2023-04-29T06:47:35.454Z,14.96
2023-04-29T06:48:35.421Z,14.98
2023-04-29T06:49:35.420Z,14.95
2023-04-29T06:50:35.400Z,14.98
2023-04-29T06:51:35.395Z,15.09
2023-04-29T06:52:35.394Z,15.16
2023-04-29T06:53:35.381Z,15.25
2023-04-29T06:54:35.360Z,15.20
2023-04-29T06:55:35.357Z,15.25
2023-04-29T06:56:35.667Z,15.34
2023-04-29T06:57:35.340Z,15.43
2023-04-29T06:58:35.318Z,15.47
2023-04-29T06:59:35.322Z,15.49
2023-04-29T07:00:35.295Z,15.39
2023-04-29T07:01:35.379Z,15.27
2023-04-29T07:02:35.295Z,15.35
2023-04-29T07:03:35.369Z,15.36
2023-04-29T07:04:35.296Z,15.36
2023-04-29T07:05:35.251Z,15.39
2023-04-29T07:06:35.226Z,15.51
2023-04-29T07:07:35.226Z,15.59
2023-04-29T07:08:35.209Z,15.57
2023-04-29T07:09:35.218Z,15.53
2023-04-29T07:10:35.183Z,15.57
2023-04-29T07:11:35.182Z,15.75
2023-04-29T07:12:35.163Z,15.86
2023-04-29T07:13:35.181Z,15.97
2023-04-29T07:14:35.142Z,16.04
2023-04-29T07:15:35.142Z,16.02
2023-04-29T07:16:35.165Z,16.05
2023-04-29T07:17:35.197Z,15.96
2023-04-29T07:18:35.103Z,15.96
2023-04-29T07:19:35.106Z,16.04
2023-04-29T07:20:35.083Z,16.11
2023-04-29T07:21:35.078Z,16.27
2023-04-29T07:22:35.053Z,16.43
2023-04-29T07:23:35.051Z,16.60
2023-04-29T07:24:35.038Z,16.73
2023-04-29T07:25:35.035Z,16.75
2023-04-29T07:26:35.016Z,16.81
2023-04-29T07:27:35.016Z,16.96
2023-04-29T07:28:35.117Z,16.97
2023-04-29T07:29:35.008Z,16.89
2023-04-29T07:30:35.011Z,17.00
2023-04-29T07:31:38.054Z,16.98
2023-04-29T07:32:35.010Z,16.98
2023-04-29T07:33:34.943Z,17.01
2023-04-29T07:34:34.933Z,17.16
2023-04-29T07:35:34.927Z,17.18
2023-04-29T07:36:34.911Z,17.25
2023-04-29T07:37:34.902Z,17.15
2023-04-29T07:38:34.898Z,17.14
2023-04-29T07:39:34.915Z,17.08
2023-04-29T07:40:34.858Z,17.30
2023-04-29T07:41:34.855Z,17.43
2023-04-29T07:42:34.833Z,17.64
2023-04-29T07:43:34.863Z,17.79
2023-04-29T07:44:34.811Z,17.96
2023-04-29T07:45:34.814Z,17.99
2023-04-29T07:46:34.838Z,17.68
2023-04-29T07:47:34.786Z,17.43
2023-04-29T07:48:34.778Z,17.49
2023-04-29T07:49:34.787Z,17.75
2023-04-29T07:50:34.752Z,17.97
2023-04-29T07:51:34.751Z,18.20
2023-04-29T07:52:34.727Z,18.37
2023-04-29T07:53:34.727Z,18.47
2023-04-29T07:54:34.733Z,18.52
2023-04-29T07:55:34.722Z,18.65
2023-04-29T07:56:34.695Z,18.73
2023-04-29T07:57:34.700Z,18.60
2023-04-29T07:58:34.662Z,18.70
2023-04-29T07:59:34.673Z,18.76
2023-04-29T08:00:34.650Z,18.73
2023-04-29T08:01:34.646Z,18.51
2023-04-29T08:02:34.756Z,18.52
2023-04-29T08:03:34.844Z,18.70
2023-04-29T08:04:34.811Z,18.98
2023-04-29T08:05:34.923Z,18.98
2023-04-29T08:06:34.589Z,18.85
2023-04-29T08:07:34.579Z,18.91
2023-04-29T08:08:34.787Z,19.22
2023-04-29T08:09:34.566Z,19.41
2023-04-29T08:10:34.535Z,19.48
2023-04-29T08:11:34.534Z,19.37
2023-04-29T08:12:34.516Z,19.21
2023-04-29T08:13:34.512Z,18.95
2023-04-29T08:14:34.490Z,18.94
2023-04-29T08:15:34.497Z,18.90
2023-04-29T08:16:34.608Z,19.02
2023-04-29T08:17:34.857Z,19.16
2023-04-29T08:18:34.455Z,19.29
2023-04-29T08:19:34.453Z,19.25
2023-04-29T08:20:34.421Z,19.62
2023-04-29T08:21:35.241Z,19.94
2023-04-29T08:22:34.398Z,20.10
2023-04-29T08:23:34.406Z,20.14
2023-04-29T08:24:34.392Z,20.38
2023-04-29T08:25:34.439Z,20.73
2023-04-29T08:26:34.369Z,20.77
2023-04-29T08:27:34.365Z,21.03
2023-04-29T08:28:34.338Z,21.19
2023-04-29T08:29:34.346Z,21.17
2023-04-29T08:30:34.327Z,21.06
2023-04-29T08:31:34.402Z,20.50
2023-04-29T08:32:34.311Z,20.08
2023-04-29T08:33:34.291Z,19.73
2023-04-29T08:34:34.276Z,19.55
2023-04-29T08:35:34.267Z,19.54
2023-04-29T08:36:34.258Z,19.55
2023-04-29T08:37:34.248Z,19.47
2023-04-29T08:38:34.234Z,19.28
2023-04-29T08:39:34.248Z,19.11
2023-04-29T08:40:34.218Z,18.88
2023-04-29T08:41:34.217Z,18.81
2023-04-29T08:42:34.201Z,19.07
2023-04-29T08:43:34.185Z,19.08
2023-04-29T08:44:34.169Z,19.08
2023-04-29T08:45:34.189Z,19.41
2023-04-29T08:46:34.153Z,19.78
2023-04-29T08:47:34.256Z,20.08
2023-04-29T08:48:34.234Z,20.32
2023-04-29T08:49:34.118Z,20.41
2023-04-29T08:50:34.110Z,20.52
2023-04-29T08:51:34.105Z,20.58
2023-04-29T08:52:34.082Z,20.59
2023-04-29T08:53:34.084Z,20.73
2023-04-29T08:54:34.054Z,20.18
2023-04-29T08:55:34.053Z,20.02
2023-04-29T08:56:34.046Z,20.18
2023-04-29T08:57:34.041Z,20.02
2023-04-29T08:58:34.016Z,19.81
2023-04-29T08:59:34.023Z,20.17
2023-04-29T09:00:33.994Z,20.36
2023-04-29T09:01:34.041Z,20.59
2023-04-29T09:02:34.345Z,20.79
2023-04-29T09:03:34.036Z,20.87
2023-04-29T09:04:34.008Z,20.98
2023-04-29T09:05:33.948Z,21.21
2023-04-29T09:06:33.933Z,21.28
2023-04-29T09:07:33.941Z,21.46
2023-04-29T09:08:33.903Z,21.62
2023-04-29T09:09:33.904Z,21.62
2023-04-29T09:10:33.885Z,21.04
2023-04-29T09:11:34.721Z,20.85
2023-04-29T09:12:33.860Z,21.24
2023-04-29T09:13:33.866Z,21.43
2023-04-29T09:14:33.842Z,21.58
2023-04-29T09:15:33.842Z,21.07
2023-04-29T09:16:33.863Z,21.04
2023-04-29T09:17:33.862Z,21.13
2023-04-29T09:18:33.804Z,20.89
2023-04-29T09:19:33.799Z,20.99
2023-04-29T09:20:33.782Z,20.89
2023-04-29T09:21:33.774Z,20.64
2023-04-29T09:22:33.769Z,20.14
2023-04-29T09:23:33.754Z,20.05
2023-04-29T09:24:33.739Z,20.26
2023-04-29T09:25:33.740Z,20.80
2023-04-29T09:26:33.718Z,21.35
2023-04-29T09:27:33.726Z,21.54
2023-04-29T09:28:33.706Z,21.29
2023-04-29T09:29:33.699Z,21.58
2023-04-29T09:30:33.671Z,21.80
2023-04-29T09:31:33.744Z,21.62
2023-04-29T09:32:33.709Z,21.68
2023-04-29T09:33:33.652Z,21.69
2023-04-29T09:34:33.640Z,21.59
2023-04-29T09:35:33.630Z,21.49
2023-04-29T09:36:33.609Z,21.42
2023-04-29T09:37:33.609Z,21.38
2023-04-29T09:38:33.588Z,21.47
2023-04-29T09:39:33.589Z,21.17
2023-04-29T09:40:40.447Z,21.31
2023-04-29T09:41:34.566Z,21.68
2023-04-29T09:42:33.549Z,21.71
2023-04-29T09:43:33.554Z,21.82
2023-04-29T09:44:34.685Z,22.09
2023-04-29T09:45:33.543Z,22.20
2023-04-29T09:46:33.567Z,21.91
2023-04-29T09:47:33.508Z,21.72
2023-04-29T09:48:33.502Z,21.91
2023-04-29T09:49:33.479Z,21.88
2023-04-29T09:50:33.472Z,21.91
2023-04-29T09:51:33.461Z,21.96
2023-04-29T09:52:33.442Z,22.02
2023-04-29T09:53:33.439Z,21.27
2023-04-29T09:54:33.429Z,21.34
2023-04-29T09:55:33.424Z,21.54
2023-04-29T09:56:33.395Z,21.90
2023-04-29T09:57:33.396Z,22.35
2023-04-29T09:58:33.375Z,22.65
2023-04-29T09:59:33.381Z,22.72
2023-04-29T10:00:33.372Z,22.72
2023-04-29T10:01:33.410Z,22.36
2023-04-29T10:02:33.404Z,21.80
2023-04-29T10:03:33.500Z,21.99
2023-04-29T10:04:33.640Z,22.28
2023-04-29T10:05:33.331Z,22.57
2023-04-29T10:06:33.296Z,22.72
2023-04-29T10:07:33.289Z,22.95
2023-04-29T10:08:33.279Z,23.16
2023-04-29T10:09:33.267Z,23.05
2023-04-29T10:10:33.248Z,23.32
2023-04-29T10:11:33.277Z,23.13
2023-04-29T10:12:33.226Z,22.92
2023-04-29T10:13:33.224Z,22.77
2023-04-29T10:14:33.208Z,22.43
2023-04-29T10:15:33.219Z,21.99
2023-04-29T10:16:33.359Z,21.86
2023-04-29T10:17:33.189Z,21.83
2023-04-29T10:18:33.190Z,21.49
2023-04-29T10:19:33.159Z,21.06
2023-04-29T10:20:33.160Z,20.64
2023-04-29T10:21:33.147Z,20.43
2023-04-29T10:22:33.126Z,20.42
2023-04-29T10:23:33.116Z,20.52
2023-04-29T10:24:33.102Z,20.77
2023-04-29T10:25:33.102Z,21.16
2023-04-29T10:26:33.075Z,21.52
2023-04-29T10:27:33.084Z,21.68
2023-04-29T10:28:33.060Z,21.83
2023-04-29T10:29:33.052Z,22.20
2023-04-29T10:30:33.058Z,22.31
2023-04-29T10:31:33.078Z,22.49
2023-04-29T10:32:43.463Z,22.64
2023-04-29T10:33:34.140Z,22.85
2023-04-29T10:34:32.992Z,22.97
2023-04-29T10:35:32.994Z,22.90
2023-04-29T10:36:32.981Z,23.05
2023-04-29T10:37:32.985Z,23.13
2023-04-29T10:38:32.950Z,23.35
2023-04-29T10:39:32.948Z,22.80
2023-04-29T10:40:32.943Z,22.57
2023-04-29T10:41:32.920Z,22.46
2023-04-29T10:42:32.904Z,22.36
2023-04-29T10:43:32.912Z,22.51
2023-04-29T10:44:32.890Z,22.55
2023-04-29T10:45:32.899Z,22.61
2023-04-29T10:46:32.906Z,22.52
2023-04-29T10:47:32.970Z,22.60
2023-04-29T10:48:32.840Z,22.57
2023-04-29T10:49:32.840Z,22.37
2023-04-29T10:50:32.820Z,22.22
2023-04-29T10:51:32.867Z,22.36
2023-04-29T10:52:32.812Z,22.60
2023-04-29T10:53:32.816Z,22.47
2023-04-29T10:54:32.771Z,22.49
2023-04-29T10:55:32.801Z,22.67
2023-04-29T10:56:32.755Z,22.76
2023-04-29T10:57:32.760Z,22.62
2023-04-29T10:58:32.741Z,22.22
2023-04-29T10:59:32.731Z,21.74
2023-04-29T11:00:32.718Z,21.37
2023-04-29T11:01:32.819Z,21.49
2023-04-29T11:02:32.780Z,21.77
2023-04-29T11:03:32.760Z,22.15
2023-04-29T11:04:32.692Z,22.51
2023-04-29T11:05:32.660Z,22.94
2023-04-29T11:06:32.677Z,23.13
2023-04-29T11:07:32.663Z,22.94
2023-04-29T11:08:32.651Z,23.05
2023-04-29T11:09:32.632Z,23.09
2023-04-29T11:10:32.620Z,23.04
2023-04-29T11:11:32.607Z,22.94
2023-04-29T11:12:32.627Z,22.72
2023-04-29T11:13:32.581Z,22.61
2023-04-29T11:14:32.597Z,22.70
2023-04-29T11:15:32.559Z,22.68
2023-04-29T11:16:32.583Z,22.60
2023-04-29T11:17:32.561Z,22.51
2023-04-29T11:18:32.552Z,22.64
2023-04-29T11:19:32.546Z,22.65
2023-04-29T11:20:32.514Z,22.73
2023-04-29T11:21:32.489Z,22.97
2023-04-29T11:22:32.491Z,23.35
2023-04-29T11:23:32.481Z,23.61
2023-04-29T11:24:32.474Z,23.90
2023-04-29T11:25:32.469Z,24.03
2023-04-29T11:26:32.453Z,23.87
2023-04-29T11:27:32.434Z,24.15
2023-04-29T11:28:32.427Z,24.35
2023-04-29T11:29:32.413Z,24.71
2023-04-29T11:30:32.403Z,24.85
2023-04-29T11:31:32.509Z,23.88
2023-04-29T11:32:32.484Z,23.80
2023-04-29T11:33:32.414Z,24.15
2023-04-29T11:34:32.357Z,24.28
2023-04-29T11:35:32.353Z,24.43
2023-04-29T11:36:32.349Z,24.68
2023-04-29T11:37:32.318Z,24.93
2023-04-29T11:38:32.337Z,24.25
2023-04-29T11:39:32.299Z,24.65
2023-04-29T11:40:32.302Z,25.06
2023-04-29T11:41:32.291Z,24.95
2023-04-29T11:42:32.276Z,25.27
2023-04-29T11:43:32.260Z,25.30
2023-04-29T11:44:32.262Z,24.90
2023-04-29T11:45:32.231Z,24.37
2023-04-29T11:46:32.284Z,23.94
2023-04-29T11:47:32.245Z,23.95
2023-04-29T11:48:32.222Z,23.94
2023-04-29T11:49:32.201Z,23.90
2023-04-29T11:50:32.197Z,23.17
2023-04-29T11:51:32.186Z,23.33
2023-04-29T11:52:32.179Z,23.09
2023-04-29T11:53:32.156Z,23.33
2023-04-29T11:54:32.153Z,23.57
2023-04-29T11:55:32.124Z,23.12
2023-04-29T11:56:32.145Z,23.02
2023-04-29T11:57:32.120Z,23.17
2023-04-29T11:58:32.114Z,23.35
2023-04-29T11:59:32.091Z,23.46
2023-04-29T12:00:32.093Z,23.43
2023-04-29T12:01:32.072Z,23.47
2023-04-29T12:02:32.266Z,23.51
2023-04-29T12:03:32.251Z,23.15
2023-04-29T12:04:32.195Z,22.82
2023-04-29T12:05:32.079Z,22.65
2023-04-29T12:06:32.030Z,22.52
2023-04-29T12:07:32.026Z,22.46
2023-04-29T12:08:31.997Z,22.27
2023-04-29T12:09:31.988Z,21.75
2023-04-29T12:10:31.975Z,21.43
2023-04-29T12:11:31.956Z,21.28
2023-04-29T12:12:31.956Z,20.98
2023-04-29T12:13:31.939Z,20.72
2023-04-29T12:14:31.946Z,20.54
2023-04-29T12:15:31.918Z,20.47
2023-04-29T12:16:32.033Z,20.62
2023-04-29T12:17:31.968Z,20.85
2023-04-29T12:18:31.885Z,20.98
2023-04-29T12:19:31.874Z,21.17
2023-04-29T12:20:31.870Z,21.32
2023-04-29T12:21:31.857Z,21.59
2023-04-29T12:22:31.852Z,22.05
2023-04-29T12:23:31.845Z,22.36
2023-04-29T12:24:31.828Z,22.45
2023-04-29T12:25:31.826Z,22.68
2023-04-29T12:26:31.801Z,22.95
2023-04-29T12:27:31.785Z,22.82
2023-04-29T12:28:31.786Z,22.40
2023-04-29T12:29:31.767Z,22.09
2023-04-29T12:30:31.811Z,21.90
2023-04-29T12:31:31.767Z,21.67
2023-04-29T12:32:31.754Z,21.54
2023-04-29T12:33:31.760Z,21.43
2023-04-29T12:34:31.711Z,21.53
2023-04-29T12:35:31.703Z,21.56
2023-04-29T12:36:31.701Z,21.67
2023-04-29T12:37:31.682Z,21.92
2023-04-29T12:38:31.688Z,22.07
2023-04-29T12:39:31.669Z,22.07
2023-04-29T12:40:31.655Z,22.00
2023-04-29T12:41:31.644Z,22.22
2023-04-29T12:42:31.632Z,22.79
2023-04-29T12:43:31.608Z,23.17
2023-04-29T12:44:31.635Z,23.53
2023-04-29T12:45:31.596Z,23.63
2023-04-29T12:46:31.626Z,23.57
2023-04-29T12:47:31.593Z,23.10
2023-04-29T12:48:33.191Z,22.91
2023-04-29T12:49:31.547Z,23.09
2023-04-29T12:50:31.542Z,23.38
2023-04-29T12:51:31.719Z,23.54
2023-04-29T12:52:31.524Z,23.61